Terminal Aerodrome Forecast
Issued by NWS Hastings, NE

Home | Current Version | Previous Version | Text Only | Print | Product List | Glossary On
Versions: 1 2 3 4 5 6 7 8 9 10 11 12 13 14 15 16 17 18 19 20 21 22 23 24 25
000
FTUS43 KGID 041140
TAFGRI
TAF
KGRI 041140Z 0412/0512 15010KT P6SM SCT050 BKN120 WS020/19045KT
     FM041400 16012KT P6SM FEW050 BKN120
     FM041600 17017G24KT P6SM SCT120 BKN200
     FM050200 16012KT P6SM SCT120 BKN200=

USA.gov is the U.S. government's official web portal to all federal, state and local government web resources and services.